createdAt,value
2022-09-06T00:02:13.203Z,101265.45
2022-09-06T00:05:19.978Z,101267.00
2022-09-06T00:08:25.114Z,101266.31
2022-09-06T00:11:30.596Z,101270.72
2022-09-06T00:14:36.742Z,101265.06
2022-09-06T00:17:42.540Z,101269.50
2022-09-06T00:20:48.570Z,101263.14
2022-09-06T00:23:54.910Z,101257.16
2022-09-06T00:27:02.512Z,101264.52
2022-09-06T00:30:06.934Z,101251.63
2022-09-06T00:33:12.165Z,101261.05
2022-09-06T00:36:17.771Z,101263.05
2022-09-06T00:39:23.437Z,101266.06
2022-09-06T00:42:28.471Z,101262.59
2022-09-06T00:45:34.589Z,101262.86
2022-09-06T00:48:40.368Z,101256.80
2022-09-06T00:51:46.693Z,101264.60
2022-09-06T00:54:53.746Z,101255.59
2022-09-06T00:58:00.037Z,101253.80
2022-09-06T01:01:05.725Z,101255.58
2022-09-06T01:04:11.410Z,101251.22
2022-09-06T01:08:09.618Z,101260.06
2022-09-06T01:11:45.965Z,101253.83
2022-09-06T01:15:23.855Z,101253.02
2022-09-06T01:19:03.990Z,101260.63
2022-09-06T01:22:48.132Z,101259.47
2022-09-06T01:26:44.465Z,101263.92
2022-09-06T01:30:06.135Z,101265.87
2022-09-06T01:33:34.806Z,101256.83
2022-09-06T01:36:54.415Z,101264.05
2022-09-06T01:39:49.491Z,101271.78
2022-09-06T01:42:56.110Z,101270.37
2022-09-06T01:46:32.313Z,101270.94
2022-09-06T01:50:09.636Z,101274.12
2022-09-06T01:53:38.333Z,101270.12
2022-09-06T01:57:16.423Z,101273.45
2022-09-06T02:00:26.777Z,101268.55
2022-09-06T02:03:57.563Z,101278.84
2022-09-06T02:07:07.535Z,101272.95
2022-09-06T02:10:23.359Z,101279.34
2022-09-06T02:13:28.517Z,101285.11
2022-09-06T02:16:37.197Z,101275.93
2022-09-06T02:20:11.698Z,101285.20
2022-09-06T02:23:19.397Z,101287.34
2022-09-06T02:26:32.177Z,101281.30
2022-09-06T02:29:37.978Z,101287.78
2022-09-06T02:32:44.108Z,101287.78
2022-09-06T02:35:58.413Z,101286.70
2022-09-06T02:39:04.189Z,101287.98
2022-09-06T02:42:11.281Z,101294.45
2022-09-06T02:45:17.305Z,101287.57
2022-09-06T02:48:16.668Z,101288.50
2022-09-06T02:51:23.754Z,101297.81
2022-09-06T02:54:29.371Z,101298.09
2022-09-06T02:57:35.065Z,101291.70
2022-09-06T03:00:40.147Z,101295.06
2022-09-06T03:03:45.495Z,101295.21
2022-09-06T03:06:50.792Z,101300.47
2022-09-06T03:09:56.012Z,101302.81
2022-09-06T03:13:03.593Z,101299.23
2022-09-06T03:16:11.115Z,101303.09
2022-09-06T03:19:16.303Z,101309.56
2022-09-06T03:22:22.049Z,101311.70
2022-09-06T03:25:27.087Z,101316.22
2022-09-06T03:28:33.139Z,101319.59
2022-09-06T03:31:38.134Z,101322.59
2022-09-06T03:34:43.984Z,101325.11
2022-09-06T03:37:49.815Z,101327.59
2022-09-06T03:40:55.831Z,101333.05
2022-09-06T03:44:01.915Z,101338.37
2022-09-06T03:47:07.590Z,101340.95
2022-09-06T03:50:13.796Z,101338.61
2022-09-06T03:53:20.012Z,101337.60
2022-09-06T03:56:24.725Z,101346.66
2022-09-06T03:59:32.073Z,101351.63
2022-09-06T04:02:38.251Z,101348.48
2022-09-06T04:05:44.942Z,101348.69
2022-09-06T04:08:53.778Z,101355.96
2022-09-06T04:12:03.392Z,101348.86
2022-09-06T04:15:09.863Z,101354.41
2022-09-06T04:18:16.029Z,101348.39
2022-09-06T04:21:23.726Z,101350.69
2022-09-06T04:24:29.729Z,101359.33
2022-09-06T04:27:35.313Z,101364.71
2022-09-06T04:30:41.483Z,101357.70
2022-09-06T04:33:50.290Z,101362.80
2022-09-06T04:36:57.921Z,101362.95
2022-09-06T04:40:03.467Z,101360.52
2022-09-06T04:43:15.321Z,101352.27
2022-09-06T04:46:36.742Z,101357.30
2022-09-06T04:49:43.297Z,101355.14
2022-09-06T04:52:49.464Z,101351.83
2022-09-06T04:55:57.149Z,101358.95
2022-09-06T04:59:03.821Z,101357.00
2022-09-06T05:02:10.194Z,101357.92
2022-09-06T05:05:17.731Z,101362.80
2022-09-06T05:11:50.779Z,101362.87
2022-09-06T05:15:00.749Z,101369.99
2022-09-06T05:18:07.100Z,101360.70
2022-09-06T05:21:32.620Z,101366.00
2022-09-06T05:24:48.786Z,101369.06
2022-09-06T05:27:58.247Z,101371.95
2022-09-06T05:31:03.094Z,101364.35
2022-09-06T05:34:11.023Z,101364.63
2022-09-06T05:37:15.595Z,101362.00
2022-09-06T05:40:24.526Z,101359.88
2022-09-06T05:43:30.817Z,101357.96
2022-09-06T05:46:36.824Z,101359.09
2022-09-06T05:49:44.312Z,101360.53
2022-09-06T05:52:52.730Z,101363.06
2022-09-06T05:56:01.531Z,101363.88
2022-09-06T05:59:38.215Z,101358.48
2022-09-06T06:02:47.061Z,101361.66
2022-09-06T06:05:53.962Z,101367.78
2022-09-06T06:09:01.052Z,101368.21
2022-09-06T06:12:07.812Z,101369.16
2022-09-06T06:15:17.303Z,101376.08
2022-09-06T06:18:23.625Z,101377.15
2022-09-06T06:21:35.557Z,101375.52
2022-09-06T06:24:45.132Z,101382.45
2022-09-06T06:27:51.949Z,101388.72
2022-09-06T06:30:58.895Z,101384.52
2022-09-06T06:34:11.832Z,101381.33
2022-09-06T06:37:19.349Z,101383.11
2022-09-06T06:40:27.687Z,101392.11
2022-09-06T06:43:35.362Z,101384.77
2022-09-06T06:46:46.869Z,101386.57
2022-09-06T06:49:54.374Z,101395.73
2022-09-06T06:53:02.311Z,101394.46
2022-09-06T06:56:08.798Z,101398.66
2022-09-06T06:59:16.010Z,101394.45
2022-09-06T07:02:23.398Z,101397.94
2022-09-06T07:08:38.626Z,101410.05
2022-09-06T07:11:45.606Z,101406.48
2022-09-06T07:14:55.766Z,101407.70
2022-09-06T07:18:02.132Z,101401.00
2022-09-06T07:24:18.076Z,101404.13
2022-09-06T07:30:35.919Z,101402.73
2022-09-06T07:33:47.027Z,101407.22
2022-09-06T07:36:56.315Z,101411.34
2022-09-06T07:40:03.485Z,101416.86
2022-09-06T07:43:15.330Z,101410.66
2022-09-06T07:46:25.320Z,101406.17
2022-09-06T07:49:34.961Z,101405.48
2022-09-06T07:55:56.315Z,101396.53
2022-09-06T07:59:03.365Z,101395.83
2022-09-06T08:02:11.142Z,101395.47
2022-09-06T08:11:45.467Z,101398.98
2022-09-06T08:14:51.493Z,101397.58
2022-09-06T08:17:57.126Z,101401.53
2022-09-06T08:21:10.204Z,101386.34
2022-09-06T08:24:19.011Z,101396.13
2022-09-06T08:27:27.068Z,101370.91
2022-09-06T08:30:36.352Z,101367.92
2022-09-06T08:33:42.521Z,101366.86
2022-09-06T08:36:57.023Z,101358.16
2022-09-06T08:40:05.104Z,101351.46
2022-09-06T08:43:10.759Z,101354.83
2022-09-06T08:46:24.331Z,101360.30
2022-09-06T08:49:28.859Z,101354.14
2022-09-06T08:53:17.515Z,101343.28
2022-09-06T08:56:21.371Z,101348.25
2022-09-06T08:59:30.627Z,101347.10
2022-09-06T09:06:20.045Z,101344.84
2022-09-06T09:09:29.537Z,101345.14
2022-09-06T09:12:39.603Z,101336.17
2022-09-06T09:15:47.209Z,101344.41
2022-09-06T09:18:54.656Z,101334.86
2022-09-06T09:22:00.681Z,101337.70
2022-09-06T09:25:07.122Z,101333.74
2022-09-06T09:28:16.474Z,101340.64
2022-09-06T09:31:25.910Z,101331.00
2022-09-06T09:34:49.764Z,101341.02
2022-09-06T09:37:58.108Z,101331.70
2022-09-06T09:41:10.444Z,101337.64
2022-09-06T09:44:19.871Z,101332.87
2022-09-06T09:47:39.586Z,101340.98
2022-09-06T09:50:50.239Z,101336.84
2022-09-06T09:54:12.037Z,101344.80
2022-09-06T09:57:18.016Z,101353.20
2022-09-06T10:00:27.626Z,101344.98
2022-09-06T10:10:04.199Z,101348.33
2022-09-06T10:13:41.332Z,101358.67
2022-09-06T10:17:00.547Z,101355.73
2022-09-06T10:20:09.460Z,101338.41
2022-09-06T10:27:15.643Z,101341.09
2022-09-06T10:30:27.157Z,101345.04
2022-09-06T10:33:53.150Z,101347.80
2022-09-06T10:37:35.963Z,101340.59
2022-09-06T10:41:10.329Z,101338.95
2022-09-06T10:44:35.387Z,101335.45
2022-09-06T10:47:46.683Z,101335.51
2022-09-06T10:51:17.116Z,101333.09
2022-09-06T10:54:25.292Z,101338.47
2022-09-06T11:00:56.867Z,101334.70
2022-09-06T11:04:06.882Z,101335.23
2022-09-06T11:07:14.424Z,101342.48
2022-09-06T11:10:35.032Z,101338.23
2022-09-06T11:13:44.103Z,101335.84
2022-09-06T11:16:54.193Z,101340.97
2022-09-06T11:20:21.626Z,101329.54
2022-09-06T11:23:58.075Z,101327.48
2022-09-06T11:27:44.539Z,101337.09
2022-09-06T11:30:54.883Z,101340.05
2022-09-06T11:34:04.147Z,101332.16
2022-09-06T11:37:19.076Z,101338.14
2022-09-06T11:40:41.042Z,101337.32
2022-09-06T11:44:02.928Z,101338.60
2022-09-06T11:47:14.929Z,101342.79
2022-09-06T11:50:41.021Z,101337.47
2022-09-06T11:54:06.871Z,101330.38
2022-09-06T11:57:35.280Z,101336.08
2022-09-06T12:00:43.365Z,101332.80
2022-09-06T12:04:07.617Z,101336.08
2022-09-06T12:07:32.568Z,101338.02
2022-09-06T12:10:56.951Z,101342.91
2022-09-06T12:14:26.570Z,101339.28
2022-09-06T12:17:38.608Z,101332.63
2022-09-06T12:21:07.969Z,101337.84
2022-09-06T12:24:13.065Z,101328.11
2022-09-06T12:27:35.931Z,101327.79
2022-09-06T12:30:57.304Z,101325.67
2022-09-06T12:34:05.556Z,101325.48
2022-09-06T12:37:16.240Z,101324.75
2022-09-06T12:40:21.710Z,101322.47
2022-09-06T12:43:28.652Z,101314.31
2022-09-06T12:46:36.038Z,101306.30
2022-09-06T12:49:42.913Z,101313.88
2022-09-06T12:53:06.959Z,101314.93
2022-09-06T12:56:27.467Z,101305.22
2022-09-06T12:59:39.583Z,101309.36
2022-09-06T13:02:50.837Z,101303.58
2022-09-06T13:06:00.201Z,101309.11
2022-09-06T13:09:09.839Z,101309.84
2022-09-06T13:12:22.539Z,101308.66
2022-09-06T13:15:51.113Z,101309.52
2022-09-06T13:19:33.608Z,101310.57
2022-09-06T13:22:56.114Z,101316.09
2022-09-06T13:26:12.309Z,101319.34
2022-09-06T13:29:45.095Z,101312.81
2022-09-06T13:32:56.215Z,101305.70
2022-09-06T13:36:19.508Z,101304.96
2022-09-06T13:39:28.180Z,101307.34
2022-09-06T13:42:45.501Z,101308.22
2022-09-06T13:45:55.861Z,101303.02
2022-09-06T13:49:12.656Z,101312.68
2022-09-06T13:52:28.055Z,101301.84
2022-09-06T13:55:36.933Z,101297.43
2022-09-06T13:58:45.335Z,101301.59
2022-09-06T14:01:51.596Z,101308.70
2022-09-06T14:05:00.766Z,101296.84
2022-09-06T14:08:07.132Z,101296.84
2022-09-06T14:11:15.038Z,101294.58
2022-09-06T14:14:24.395Z,101310.57
2022-09-06T14:17:31.028Z,101289.73
2022-09-06T14:20:40.330Z,101292.88
2022-09-06T14:23:46.277Z,101293.81
2022-09-06T14:26:53.431Z,101291.23
2022-09-06T14:30:00.199Z,101288.30
2022-09-06T14:33:07.749Z,101292.94
2022-09-06T14:36:13.921Z,101290.73
2022-09-06T14:39:19.919Z,101293.86
2022-09-06T14:42:26.822Z,101290.09
2022-09-06T14:45:29.523Z,101289.09
2022-09-06T14:48:21.143Z,101294.80
2022-09-06T14:51:27.220Z,101297.87
2022-09-06T14:54:26.100Z,101295.98
2022-09-06T14:57:30.048Z,101296.86
2022-09-06T15:00:39.661Z,101291.03
2022-09-06T15:03:47.369Z,101297.05
2022-09-06T15:06:54.986Z,101297.41
2022-09-06T15:10:02.410Z,101303.11
2022-09-06T15:13:10.828Z,101306.74
2022-09-06T15:16:17.766Z,101304.49
2022-09-06T15:19:23.162Z,101301.59
2022-09-06T15:22:27.994Z,101295.75
2022-09-06T15:25:33.674Z,101298.19
2022-09-06T15:28:39.385Z,101300.63
2022-09-06T15:31:47.153Z,101296.52
2022-09-06T15:34:52.653Z,101302.41
2022-09-06T15:37:59.236Z,101291.37
2022-09-06T15:41:08.100Z,101289.17
2022-09-06T15:44:19.900Z,101293.84
2022-09-06T15:47:27.743Z,101294.89
2022-09-06T15:50:50.188Z,101293.70
2022-09-06T15:53:41.303Z,101289.45
2022-09-06T15:56:46.751Z,101292.56
2022-09-06T15:59:52.752Z,101287.73
2022-09-06T16:03:00.580Z,101291.02
2022-09-06T16:09:22.881Z,101286.73
2022-09-06T16:12:28.599Z,101285.89
2022-09-06T16:15:35.252Z,101284.87
2022-09-06T16:18:41.725Z,101295.01
2022-09-06T16:21:48.793Z,101296.73
2022-09-06T16:24:55.559Z,101299.84
2022-09-06T16:28:00.566Z,101298.31
2022-09-06T16:31:13.092Z,101304.50
2022-09-06T16:34:19.799Z,101307.09
2022-09-06T16:37:25.231Z,101309.86
2022-09-06T16:40:31.296Z,101313.98
2022-09-06T16:43:37.991Z,101307.63
2022-09-06T16:46:47.606Z,101315.03
2022-09-06T16:49:55.304Z,101312.63
2022-09-06T16:53:01.372Z,101315.02
2022-09-06T16:56:09.278Z,101317.94
2022-09-06T16:59:20.526Z,101313.98
2022-09-06T17:02:28.570Z,101323.45
2022-09-06T17:05:36.646Z,101327.39
2022-09-06T17:08:41.372Z,101323.63
2022-09-06T17:11:47.838Z,101326.55
2022-09-06T17:14:53.381Z,101325.69
2022-09-06T17:18:01.458Z,101327.56
2022-09-06T17:21:15.259Z,101327.73
2022-09-06T17:24:21.937Z,101334.62
2022-09-06T17:27:28.413Z,101335.33
2022-09-06T17:30:38.135Z,101334.13
2022-09-06T17:33:43.337Z,101341.17
2022-09-06T17:36:49.713Z,101343.41
2022-09-06T17:39:57.160Z,101336.88
2022-09-06T17:43:03.645Z,101340.46
2022-09-06T17:46:13.033Z,101345.80
2022-09-06T17:49:20.911Z,101344.23
2022-09-06T17:52:30.403Z,101347.69
2022-09-06T17:55:37.146Z,101355.23
2022-09-06T17:58:45.590Z,101355.58
2022-09-06T18:01:56.226Z,101352.30
2022-09-06T18:05:06.224Z,101353.85
2022-09-06T18:08:14.471Z,101353.52
2022-09-06T18:11:32.544Z,101360.56
2022-09-06T18:14:41.174Z,101360.73
2022-09-06T18:17:49.730Z,101361.58
2022-09-06T18:20:58.841Z,101364.66
2022-09-06T18:24:05.798Z,101363.80
2022-09-06T18:27:15.097Z,101364.47
2022-09-06T18:30:25.421Z,101367.19
2022-09-06T18:33:33.378Z,101364.75
2022-09-06T18:36:43.364Z,101362.70
2022-09-06T18:39:53.605Z,101361.64
2022-09-06T18:43:03.416Z,101364.05
2022-09-06T18:46:17.192Z,101364.52
2022-09-06T18:49:26.010Z,101370.19
2022-09-06T18:52:35.128Z,101367.07
2022-09-06T18:55:44.582Z,101372.56
2022-09-06T18:58:53.292Z,101365.33
2022-09-06T19:02:01.077Z,101366.00
2022-09-06T19:05:11.246Z,101365.30
2022-09-06T19:08:17.548Z,101360.30
2022-09-06T19:11:27.811Z,101362.00
2022-09-06T19:14:38.342Z,101364.58
2022-09-06T19:17:44.688Z,101374.36
2022-09-06T19:20:50.653Z,101375.19
2022-09-06T19:23:59.532Z,101375.52
2022-09-06T19:26:58.998Z,101374.48
2022-09-06T19:30:06.531Z,101373.44
2022-09-06T19:33:12.641Z,101372.52
2022-09-06T19:36:17.735Z,101375.42
2022-09-06T19:39:34.836Z,101377.08
2022-09-06T19:42:30.537Z,101378.40
2022-09-06T19:45:16.649Z,101372.68
2022-09-06T19:48:08.538Z,101371.58
2022-09-06T19:50:54.823Z,101375.14
2022-09-06T19:53:49.681Z,101377.81
2022-09-06T19:56:42.032Z,101380.86
2022-09-06T19:59:35.262Z,101371.53
2022-09-06T20:02:20.770Z,101370.92
2022-09-06T20:05:15.573Z,101380.78
2022-09-06T20:08:01.858Z,101382.45
2022-09-06T20:11:03.031Z,101376.73
2022-09-06T20:13:50.381Z,101382.47
2022-09-06T20:16:44.717Z,101380.70
2022-09-06T20:19:37.873Z,101380.62
2022-09-06T20:22:45.126Z,101388.06
2022-09-06T20:25:51.232Z,101390.86
2022-09-06T20:28:57.675Z,101390.20
2022-09-06T20:32:03.216Z,101389.35
2022-09-06T20:35:11.430Z,101385.94
2022-09-06T20:38:17.401Z,101386.63
2022-09-06T20:41:30.134Z,101387.70
2022-09-06T20:44:36.584Z,101390.47
2022-09-06T20:47:43.460Z,101382.44
2022-09-06T20:50:50.563Z,101393.53
2022-09-06T20:53:56.908Z,101388.95
2022-09-06T20:57:03.186Z,101393.27
2022-09-06T21:00:12.505Z,101396.25
2022-09-06T21:03:16.769Z,101395.97
2022-09-06T21:06:25.254Z,101389.58
2022-09-06T21:09:32.459Z,101390.13
2022-09-06T21:12:38.982Z,101384.53
2022-09-06T21:15:49.693Z,101385.48
2022-09-06T21:18:56.492Z,101384.53
2022-09-06T21:22:02.735Z,101384.82
2022-09-06T21:25:09.001Z,101387.99
2022-09-06T21:28:13.849Z,101383.45
2022-09-06T21:31:38.871Z,101382.03
2022-09-06T21:34:47.025Z,101389.15
2022-09-06T21:37:53.521Z,101384.96
2022-09-06T21:41:00.194Z,101387.98
2022-09-06T21:44:09.144Z,101389.92
2022-09-06T21:47:14.995Z,101385.39
2022-09-06T21:50:21.198Z,101388.05
2022-09-06T21:53:29.264Z,101388.34
2022-09-06T21:56:37.063Z,101388.34
2022-09-06T21:59:41.938Z,101390.05
2022-09-06T22:02:47.576Z,101388.34
2022-09-06T22:05:54.228Z,101380.44
2022-09-06T22:09:01.202Z,101384.53
2022-09-06T22:12:08.050Z,101385.23
2022-09-06T22:15:15.138Z,101380.84
2022-09-06T22:18:21.309Z,101383.58
2022-09-06T22:21:34.067Z,101378.84
2022-09-06T22:24:38.897Z,101384.89
2022-09-06T22:27:45.244Z,101384.60
2022-09-06T22:30:51.581Z,101382.45
2022-09-06T22:33:56.574Z,101383.89
2022-09-06T22:37:03.745Z,101371.69
2022-09-06T22:40:08.956Z,101374.12
2022-09-06T22:43:14.110Z,101376.91
2022-09-06T22:46:22.701Z,101372.91
2022-09-06T22:49:27.059Z,101372.33
2022-09-06T22:52:32.051Z,101382.33
2022-09-06T22:55:37.497Z,101375.55
2022-09-06T22:58:42.488Z,101375.63
2022-09-06T23:01:49.086Z,101375.69
2022-09-06T23:04:55.349Z,101380.66
2022-09-06T23:08:00.691Z,101377.28
2022-09-06T23:11:06.517Z,101383.67
2022-09-06T23:14:14.959Z,101378.41
2022-09-06T23:17:22.407Z,101379.63
2022-09-06T23:20:28.637Z,101376.40
2022-09-06T23:23:35.020Z,101372.94
2022-09-06T23:26:52.147Z,101370.50
2022-09-06T23:29:52.161Z,101380.37
2022-09-06T23:32:57.846Z,101378.07
2022-09-06T23:36:03.126Z,101379.35
2022-09-06T23:39:08.991Z,101372.03
2022-09-06T23:42:15.274Z,101379.80
2022-09-06T23:45:52.546Z,101370.32
2022-09-06T23:48:27.642Z,101380.08
2022-09-06T23:51:33.236Z,101380.31
2022-09-06T23:54:39.009Z,101377.63
2022-09-06T23:57:44.264Z,101371.58
